Tuesday, May 31, 2016
23:47 UTC
  |  Log In   |  Register Free
Airport Search:

Petaluma Municipal Airport
(KO69)

Petaluma Municipal Airport Diagram
No Airport Diagram Available

FAA data valid effective May 26 2016 - Jul 21 2016 (unless otherwise noted).

 
 
 
 
 
 
 
 
 
 
 
 
 
 
Current Aviation Weather for KO69

Weather Summary


The most recent METAR observation for O69 was updated at: 12:55 UTC
METAR for KO69 is not available. Closest METAR is for KDVO
KO69  (most recent observation was updatred at 31:23 UTC)
312335Z AUTO 31007G14KT 270V330 10SM CLR 27/13 A2984 RMK AO1

KDVO  (7.3 nm NW)   (most recent observation was updated at 31:23 UTC)
312335Z AUTO 34011KT CLR 32/15 A2980 RMK AO2

KAPC  (15.6 nm NW)   (most recent observation was updated at 31:22 UTC)
312254Z AUTO 20010KT 10SM CLR 28/14 A2980 RMK AO2 SLP084 T02830144 TSNO

TAF for KO69 is not available.
KSTS  (18.0 nm SE)   (most recent observation was updatred at 31:23 UTC)
312328Z 0100/0124 17008KT P6SM SKC FM010300 VRB03KT P6SM SKC FM011000 VRB03KT 1/2SM FG BKN002 FM011500 00000KT P6SM FEW007 FM012000 17010KT P6SM SKC


KSUU  (32.0 nm SW)   (most recent observation was updatred at 31:19 UTC)
311908Z 3119/0201 23009KT 9999 FEW250 QNH2978INS BECMG 3123/3124 23012G18KT 9999 FEW250 QNH2977INS BECMG 0110/0111 23012KT 9999 FEW250 QNH2980INS TX34/3121Z TN14/0112Z


GlobalAir.com is loading additional information.
 Current Weather at O69
81.0 F° (27.0 C°)

Northwest winds at 10.4 mph
Pressure:
29.86 in
Humidity:
51%
Wind:
Northwest at 10.4 mph
Dew Point:
60.8 F° (16.0 C°)
Visibility:
10.00 mi
O69 NOAA Radar




Find All Airport Services Find A Hotel Find A Rental Car Find A Golf Course Find A Restaurant $100 Hamburger



Airport Weather Forecast for KO69

Translated METAR for KO69 (2335 UTC)
METAR:
KO69 312335Z AUTO 31007G14KT 270V330 10SM CLR 27/13 A2984 RMK AO1
Conditions at:
KO69 (Petaluma Muni, CA) observed 2335 UTC 31 May 2016
Temperature:
27°C (80.6°F)
Dewpoint:
13°C (55.4°F) [RH = 42]
Pressure:
29.84 inches Hg (1010.5 mb)
Winds:
from the NW (310 degrees) at 8.1 mph (7 knots: 3.6 m/s)
gusting to 16.1 mph (14 knots: 7.2 m/s)
Visibility:
10 mile(s)
Ceiling:
at least 12,000 feet AGL
Clouds:
Clear below 12,000 feet AGL
Remarks:
site is un-manned
site is automated and does NOT have a precipitation sensor

Translated TAF for KSTS (Charles M Schulz - Sonoma County, CA) (2328 UTC)
TAF text:
KSTS 312328Z 0100/0124 17008KT P6SM SKC
Forecast period:
Sunday May 01 2016 00:00 UTC - Sunday May 01 2016 24:00 UTC
Forecast type:
FROM: standard forecast or significant change
Winds:
from the S (170 degrees) at 9.2 mph (8 knots: 4.1 m/s)
Visibility:
6 or more mile(s) (9.7+ km)
Ceiling:
at least 12,000 feet AGL
Clouds:
Clear Skies
Weather:
no significant weather observed at this time
TAF text:
FM010300 VRB03KT P6SM SKC
Forecast period:
Sunday May 01 2016 03:00 UTC - Sunday May 01 2016 10:00 UTC
Forecast type:
FROM: standard forecast or significant change
Winds:
variable wind direction at 3.5 mph (3 knots: 1.5 m/s)
Visibility:
6 or more mile(s) (9.7+ km)
Ceiling:
at least 12,000 feet AGL
Clouds:
Clear Skies
Weather:
no significant weather observed at this time
TAF text:
FM011000 VRB03KT 1/2SM FG BKN002
Forecast period:
Sunday May 01 2016 10:00 UTC - Sunday May 01 2016 15:00 UTC
Forecast type:
FROM: standard forecast or significant change
Winds:
variable wind direction at 3.5 mph (3 knots: 1.5 m/s)
Visibility:
0.5 mile(s) (0.8 km)
Ceiling:
200 feet AGL
Clouds:
Broken Cloud Cover at 200 feet AGL
Weather:
Moderate Fog
TAF text:
FM011500 00000KT P6SM FEW007
Forecast period:
Sunday May 01 2016 15:00 UTC - Sunday May 01 2016 20:00 UTC
Forecast type:
FROM: standard forecast or significant change
Winds:
from the N (000 degrees) at 0 mph (0 knots: 0 m/s)
Visibility:
6 or more mile(s) (9.7+ km)
Ceiling:
at least 12,000 feet AGL
Clouds:
Few Clouds at 700 feet AGL
Weather:
no significant weather observed at this time
TAF text:
FM012000 17010KT P6SM SKC
Forecast period:
Sunday May 01 2016 20:00 UTC - Sunday May 01 2016 24:00 UTC
Forecast type:
FROM: standard forecast or significant change
Winds:
from the S (170 degrees) at 11.5 mph (10 knots: 5.1 m/s)
Visibility:
6 or more mile(s) (9.7+ km)
Ceiling:
at least 12,000 feet AGL
Clouds:
Clear Skies
Weather:
no significant weather observed at this time
FBO's on the Field
FBO Company Facility Photos Services Transportation Aviation Fuel Prices: Prices include tax
Catering Weather Repair Courtesy Rental Type 100LL JetA JetA+ MOGAS 8087
 
Petaluma Municipal Airport

Currently rated 5 by 1 person
FS:Shell
Last Updated: May-23
Login to update fuel prices
SS:
Contact Petaluma Municipal AirportMore FBO Information
 
Add another FBO Facility Photos Catering Weather Repair Courtesy Rental Type 100LL JetA JetA+ MOGAS 8087
Services Transportation Aviation Fuel Prices: Prices include tax


model-print
model-print
model-print
model-print